sensor_id;sensor_type;location;lat;lon;timestamp;temperature;humidity
23609;DHT22;11982;50.810;4.442;2023-07-31T00:00:33;16.40;99.90
23609;DHT22;11982;50.810;4.442;2023-07-31T00:02:59;16.50;99.90
23609;DHT22;11982;50.810;4.442;2023-07-31T00:05:25;16.40;99.90
23609;DHT22;11982;50.810;4.442;2023-07-31T00:07:51;16.50;99.90
23609;DHT22;11982;50.810;4.442;2023-07-31T00:10:16;16.50;99.90
23609;DHT22;11982;50.810;4.442;2023-07-31T00:12:45;16.50;99.90
23609;DHT22;11982;50.810;4.442;2023-07-31T00:15:13;16.50;99.90
23609;DHT22;11982;50.810;4.442;2023-07-31T00:17:38;16.60;99.90
23609;DHT22;11982;50.810;4.442;2023-07-31T00:20:04;16.60;99.90
23609;DHT22;11982;50.810;4.442;2023-07-31T00:22:30;16.60;99.90
23609;DHT22;11982;50.810;4.442;2023-07-31T00:24:56;16.60;99.90
23609;DHT22;11982;50.810;4.442;2023-07-31T00:27:22;16.60;99.90
23609;DHT22;11982;50.810;4.442;2023-07-31T00:29:48;16.60;99.90
23609;DHT22;11982;50.810;4.442;2023-07-31T00:32:14;16.50;99.90
23609;DHT22;11982;50.810;4.442;2023-07-31T00:34:39;16.50;99.90
23609;DHT22;11982;50.810;4.442;2023-07-31T00:37:05;16.50;99.90
23609;DHT22;11982;50.810;4.442;2023-07-31T00:39:33;16.50;99.90
23609;DHT22;11982;50.810;4.442;2023-07-31T00:41:59;16.60;99.90
23609;DHT22;11982;50.810;4.442;2023-07-31T00:44:24;16.50;99.90
23609;DHT22;11982;50.810;4.442;2023-07-31T00:46:50;16.50;99.90
23609;DHT22;11982;50.810;4.442;2023-07-31T00:49:16;16.50;99.90
23609;DHT22;11982;50.810;4.442;2023-07-31T00:51:41;16.50;99.90
23609;DHT22;11982;50.810;4.442;2023-07-31T00:54:07;16.50;99.90
23609;DHT22;11982;50.810;4.442;2023-07-31T00:56:33;16.50;99.90
23609;DHT22;11982;50.810;4.442;2023-07-31T00:58:59;16.50;99.90
23609;DHT22;11982;50.810;4.442;2023-07-31T01:01:25;16.50;99.90
23609;DHT22;11982;50.810;4.442;2023-07-31T01:03:52;16.50;99.90
23609;DHT22;11982;50.810;4.442;2023-07-31T01:06:42;16.50;99.90
23609;DHT22;11982;50.810;4.442;2023-07-31T01:09:29;16.50;99.90
23609;DHT22;11982;50.810;4.442;2023-07-31T01:12:02;16.50;99.90
23609;DHT22;11982;50.810;4.442;2023-07-31T01:14:28;16.60;99.90
23609;DHT22;11982;50.810;4.442;2023-07-31T01:16:54;16.50;99.90
23609;DHT22;11982;50.810;4.442;2023-07-31T01:19:26;16.50;99.90
23609;DHT22;11982;50.810;4.442;2023-07-31T01:27:53;16.60;99.90
23609;DHT22;11982;50.810;4.442;2023-07-31T01:30:25;16.60;99.90
23609;DHT22;11982;50.810;4.442;2023-07-31T01:32:54;16.60;99.90
23609;DHT22;11982;50.810;4.442;2023-07-31T01:35:20;16.60;99.90
23609;DHT22;11982;50.810;4.442;2023-07-31T01:37:46;16.50;99.90
23609;DHT22;11982;50.810;4.442;2023-07-31T01:40:12;16.60;99.90
23609;DHT22;11982;50.810;4.442;2023-07-31T01:42:37;16.60;99.90
23609;DHT22;11982;50.810;4.442;2023-07-31T01:45:03;16.50;99.90
23609;DHT22;11982;50.810;4.442;2023-07-31T01:47:29;16.60;99.90
23609;DHT22;11982;50.810;4.442;2023-07-31T01:49:55;16.60;99.90
23609;DHT22;11982;50.810;4.442;2023-07-31T01:52:20;16.60;99.90
23609;DHT22;11982;50.810;4.442;2023-07-31T01:54:46;16.60;99.90
23609;DHT22;11982;50.810;4.442;2023-07-31T01:57:12;16.60;99.90
23609;DHT22;11982;50.810;4.442;2023-07-31T01:59:38;16.60;99.90
23609;DHT22;11982;50.810;4.442;2023-07-31T02:02:04;16.60;99.90
23609;DHT22;11982;50.810;4.442;2023-07-31T02:04:30;16.60;99.90
23609;DHT22;11982;50.810;4.442;2023-07-31T02:06:55;16.50;99.90
23609;DHT22;11982;50.810;4.442;2023-07-31T02:09:21;16.60;99.90
23609;DHT22;11982;50.810;4.442;2023-07-31T02:11:47;16.50;99.90
23609;DHT22;11982;50.810;4.442;2023-07-31T02:14:12;16.50;99.90
23609;DHT22;11982;50.810;4.442;2023-07-31T02:16:38;16.50;99.90
23609;DHT22;11982;50.810;4.442;2023-07-31T02:19:04;16.50;99.90
23609;DHT22;11982;50.810;4.442;2023-07-31T02:21:29;16.50;99.90
23609;DHT22;11982;50.810;4.442;2023-07-31T02:23:55;16.50;99.90
23609;DHT22;11982;50.810;4.442;2023-07-31T02:26:21;16.50;99.90
23609;DHT22;11982;50.810;4.442;2023-07-31T02:28:46;16.50;99.90
23609;DHT22;11982;50.810;4.442;2023-07-31T02:31:12;16.50;99.90
23609;DHT22;11982;50.810;4.442;2023-07-31T02:33:38;16.50;99.90
23609;DHT22;11982;50.810;4.442;2023-07-31T02:36:03;16.50;99.90
23609;DHT22;11982;50.810;4.442;2023-07-31T02:38:29;16.60;99.90
23609;DHT22;11982;50.810;4.442;2023-07-31T02:40:55;16.50;99.90
23609;DHT22;11982;50.810;4.442;2023-07-31T02:43:20;16.60;99.90
23609;DHT22;11982;50.810;4.442;2023-07-31T02:45:51;16.60;99.90
23609;DHT22;11982;50.810;4.442;2023-07-31T02:48:17;16.60;99.90
23609;DHT22;11982;50.810;4.442;2023-07-31T02:50:43;16.60;99.90
23609;DHT22;11982;50.810;4.442;2023-07-31T02:53:08;16.60;99.90
23609;DHT22;11982;50.810;4.442;2023-07-31T02:55:34;16.60;99.90
23609;DHT22;11982;50.810;4.442;2023-07-31T02:57:59;16.60;99.90
23609;DHT22;11982;50.810;4.442;2023-07-31T03:00:25;16.60;99.90
23609;DHT22;11982;50.810;4.442;2023-07-31T03:02:51;16.70;99.90
23609;DHT22;11982;50.810;4.442;2023-07-31T03:05:16;16.60;99.90
23609;DHT22;11982;50.810;4.442;2023-07-31T03:07:42;16.70;99.90
23609;DHT22;11982;50.810;4.442;2023-07-31T03:10:08;16.70;99.90
23609;DHT22;11982;50.810;4.442;2023-07-31T03:12:34;16.70;99.90
23609;DHT22;11982;50.810;4.442;2023-07-31T03:15:00;16.70;99.90
23609;DHT22;11982;50.810;4.442;2023-07-31T03:17:25;16.70;99.90
23609;DHT22;11982;50.810;4.442;2023-07-31T03:19:51;16.70;99.90
23609;DHT22;11982;50.810;4.442;2023-07-31T03:22:17;16.70;99.90
23609;DHT22;11982;50.810;4.442;2023-07-31T03:24:42;16.60;99.90
23609;DHT22;11982;50.810;4.442;2023-07-31T03:27:08;16.60;99.90
23609;DHT22;11982;50.810;4.442;2023-07-31T03:29:34;16.60;99.90
23609;DHT22;11982;50.810;4.442;2023-07-31T03:31:59;16.60;99.90
23609;DHT22;11982;50.810;4.442;2023-07-31T03:34:25;16.60;99.90
23609;DHT22;11982;50.810;4.442;2023-07-31T03:36:51;16.60;99.90
23609;DHT22;11982;50.810;4.442;2023-07-31T03:39:18;16.60;99.90
23609;DHT22;11982;50.810;4.442;2023-07-31T03:41:43;16.50;99.90
23609;DHT22;11982;50.810;4.442;2023-07-31T03:44:09;16.50;99.90
23609;DHT22;11982;50.810;4.442;2023-07-31T03:46:35;16.60;99.90
23609;DHT22;11982;50.810;4.442;2023-07-31T03:49:01;16.60;99.90
23609;DHT22;11982;50.810;4.442;2023-07-31T03:51:27;16.60;99.90
23609;DHT22;11982;50.810;4.442;2023-07-31T03:53:53;16.50;99.90
23609;DHT22;11982;50.810;4.442;2023-07-31T03:56:18;16.50;99.90
23609;DHT22;11982;50.810;4.442;2023-07-31T03:58:44;16.40;99.90
23609;DHT22;11982;50.810;4.442;2023-07-31T04:01:10;16.40;99.90
23609;DHT22;11982;50.810;4.442;2023-07-31T04:03:35;16.30;99.90
23609;DHT22;11982;50.810;4.442;2023-07-31T04:06:01;16.30;99.90
23609;DHT22;11982;50.810;4.442;2023-07-31T04:08:27;16.30;99.90
23609;DHT22;11982;50.810;4.442;2023-07-31T04:10:55;16.30;99.90
23609;DHT22;11982;50.810;4.442;2023-07-31T04:13:22;16.30;99.90
23609;DHT22;11982;50.810;4.442;2023-07-31T04:15:51;16.30;99.90
23609;DHT22;11982;50.810;4.442;2023-07-31T04:18:16;16.20;99.90
23609;DHT22;11982;50.810;4.442;2023-07-31T04:20:42;16.20;99.90
23609;DHT22;11982;50.810;4.442;2023-07-31T04:23:08;16.20;99.90
23609;DHT22;11982;50.810;4.442;2023-07-31T04:25:33;16.10;99.90
23609;DHT22;11982;50.810;4.442;2023-07-31T04:28:00;16.10;99.90
23609;DHT22;11982;50.810;4.442;2023-07-31T04:30:26;16.10;99.90
23609;DHT22;11982;50.810;4.442;2023-07-31T04:32:52;16.10;99.90
23609;DHT22;11982;50.810;4.442;2023-07-31T04:35:17;16.10;99.90
23609;DHT22;11982;50.810;4.442;2023-07-31T04:37:43;16.10;99.90
23609;DHT22;11982;50.810;4.442;2023-07-31T04:40:11;16.10;99.90
23609;DHT22;11982;50.810;4.442;2023-07-31T04:42:37;16.10;99.90
23609;DHT22;11982;50.810;4.442;2023-07-31T04:45:03;16.10;99.90
23609;DHT22;11982;50.810;4.442;2023-07-31T04:47:29;16.20;99.90
23609;DHT22;11982;50.810;4.442;2023-07-31T04:49:54;16.20;99.90
23609;DHT22;11982;50.810;4.442;2023-07-31T04:52:20;16.20;99.90
23609;DHT22;11982;50.810;4.442;2023-07-31T04:54:46;16.20;99.90
23609;DHT22;11982;50.810;4.442;2023-07-31T04:57:11;16.20;99.90
23609;DHT22;11982;50.810;4.442;2023-07-31T04:59:37;16.20;99.90
23609;DHT22;11982;50.810;4.442;2023-07-31T05:02:03;16.10;99.90
23609;DHT22;11982;50.810;4.442;2023-07-31T05:04:28;16.10;99.90
23609;DHT22;11982;50.810;4.442;2023-07-31T05:06:54;16.10;99.90
23609;DHT22;11982;50.810;4.442;2023-07-31T05:09:20;16.10;99.90
23609;DHT22;11982;50.810;4.442;2023-07-31T05:11:45;16.10;99.90
23609;DHT22;11982;50.810;4.442;2023-07-31T05:14:11;16.10;99.90
23609;DHT22;11982;50.810;4.442;2023-07-31T05:16:37;16.10;99.90
23609;DHT22;11982;50.810;4.442;2023-07-31T05:19:02;16.10;99.90
23609;DHT22;11982;50.810;4.442;2023-07-31T05:21:28;16.10;99.90
23609;DHT22;11982;50.810;4.442;2023-07-31T05:23:54;16.10;99.90
23609;DHT22;11982;50.810;4.442;2023-07-31T05:26:20;16.00;99.90
23609;DHT22;11982;50.810;4.442;2023-07-31T05:28:45;15.90;99.90
23609;DHT22;11982;50.810;4.442;2023-07-31T05:31:11;15.90;99.90
23609;DHT22;11982;50.810;4.442;2023-07-31T05:33:37;15.90;99.90
23609;DHT22;11982;50.810;4.442;2023-07-31T05:36:02;15.90;99.90
23609;DHT22;11982;50.810;4.442;2023-07-31T05:38:28;15.90;99.90
23609;DHT22;11982;50.810;4.442;2023-07-31T05:41:02;15.90;99.90
23609;DHT22;11982;50.810;4.442;2023-07-31T05:43:29;15.80;99.90
23609;DHT22;11982;50.810;4.442;2023-07-31T05:45:55;15.80;99.90
23609;DHT22;11982;50.810;4.442;2023-07-31T05:48:27;15.80;99.90
23609;DHT22;11982;50.810;4.442;2023-07-31T05:50:52;15.80;99.90
23609;DHT22;11982;50.810;4.442;2023-07-31T05:53:18;15.80;99.90
23609;DHT22;11982;50.810;4.442;2023-07-31T05:55:44;15.80;99.90
23609;DHT22;11982;50.810;4.442;2023-07-31T05:58:09;15.80;99.90
23609;DHT22;11982;50.810;4.442;2023-07-31T06:00:35;15.80;99.90
23609;DHT22;11982;50.810;4.442;2023-07-31T06:03:01;15.70;99.90
23609;DHT22;11982;50.810;4.442;2023-07-31T06:05:27;15.80;99.90
23609;DHT22;11982;50.810;4.442;2023-07-31T06:07:55;15.80;99.90
23609;DHT22;11982;50.810;4.442;2023-07-31T06:10:21;15.80;99.90
23609;DHT22;11982;50.810;4.442;2023-07-31T06:12:46;15.80;99.90
23609;DHT22;11982;50.810;4.442;2023-07-31T06:15:12;15.80;99.90
23609;DHT22;11982;50.810;4.442;2023-07-31T06:17:39;15.80;99.90
23609;DHT22;11982;50.810;4.442;2023-07-31T06:20:06;15.80;99.90
23609;DHT22;11982;50.810;4.442;2023-07-31T06:22:32;15.80;99.90
23609;DHT22;11982;50.810;4.442;2023-07-31T06:24:58;15.80;99.90
23609;DHT22;11982;50.810;4.442;2023-07-31T06:27:24;15.90;99.90
23609;DHT22;11982;50.810;4.442;2023-07-31T06:29:50;15.90;99.90
23609;DHT22;11982;50.810;4.442;2023-07-31T06:32:16;15.90;99.90
23609;DHT22;11982;50.810;4.442;2023-07-31T06:34:41;15.90;99.90
23609;DHT22;11982;50.810;4.442;2023-07-31T06:37:07;15.90;99.90
23609;DHT22;11982;50.810;4.442;2023-07-31T06:39:33;15.90;99.90
23609;DHT22;11982;50.810;4.442;2023-07-31T06:41:58;15.90;99.90
23609;DHT22;11982;50.810;4.442;2023-07-31T06:44:24;16.00;99.90
23609;DHT22;11982;50.810;4.442;2023-07-31T06:46:50;16.10;99.90
23609;DHT22;11982;50.810;4.442;2023-07-31T06:49:16;16.10;99.90
23609;DHT22;11982;50.810;4.442;2023-07-31T06:51:42;16.10;99.90
23609;DHT22;11982;50.810;4.442;2023-07-31T06:54:10;16.10;99.90
23609;DHT22;11982;50.810;4.442;2023-07-31T06:56:37;16.20;99.90
23609;DHT22;11982;50.810;4.442;2023-07-31T06:59:03;16.40;99.90
23609;DHT22;11982;50.810;4.442;2023-07-31T07:01:29;16.50;99.90
23609;DHT22;11982;50.810;4.442;2023-07-31T07:03:55;16.60;99.90
23609;DHT22;11982;50.810;4.442;2023-07-31T07:06:22;16.60;99.90
23609;DHT22;11982;50.810;4.442;2023-07-31T07:08:48;16.80;99.90
23609;DHT22;11982;50.810;4.442;2023-07-31T07:11:13;16.80;99.90
23609;DHT22;11982;50.810;4.442;2023-07-31T07:13:39;16.90;99.90
23609;DHT22;11982;50.810;4.442;2023-07-31T07:16:05;16.90;99.90
23609;DHT22;11982;50.810;4.442;2023-07-31T07:18:30;17.00;99.90
23609;DHT22;11982;50.810;4.442;2023-07-31T07:20:56;17.10;99.90
23609;DHT22;11982;50.810;4.442;2023-07-31T07:23:24;17.20;99.90
23609;DHT22;11982;50.810;4.442;2023-07-31T07:25:49;17.30;99.90
23609;DHT22;11982;50.810;4.442;2023-07-31T07:28:16;17.30;99.90
23609;DHT22;11982;50.810;4.442;2023-07-31T07:30:42;17.30;99.90
23609;DHT22;11982;50.810;4.442;2023-07-31T07:33:08;17.30;99.90
23609;DHT22;11982;50.810;4.442;2023-07-31T07:35:34;17.30;99.90
23609;DHT22;11982;50.810;4.442;2023-07-31T07:38:01;17.30;99.90
23609;DHT22;11982;50.810;4.442;2023-07-31T07:40:27;17.30;99.90
23609;DHT22;11982;50.810;4.442;2023-07-31T07:42:53;17.20;99.90
23609;DHT22;11982;50.810;4.442;2023-07-31T07:45:18;17.30;99.90
23609;DHT22;11982;50.810;4.442;2023-07-31T07:47:44;17.20;99.90
23609;DHT22;11982;50.810;4.442;2023-07-31T07:50:10;17.30;99.90
23609;DHT22;11982;50.810;4.442;2023-07-31T07:52:35;17.40;99.90
23609;DHT22;11982;50.810;4.442;2023-07-31T07:55:01;17.40;99.90
23609;DHT22;11982;50.810;4.442;2023-07-31T07:57:28;17.40;99.90
23609;DHT22;11982;50.810;4.442;2023-07-31T07:59:54;17.40;99.90
23609;DHT22;11982;50.810;4.442;2023-07-31T08:02:19;17.40;99.90
23609;DHT22;11982;50.810;4.442;2023-07-31T08:04:50;17.50;99.90
23609;DHT22;11982;50.810;4.442;2023-07-31T08:07:24;17.50;99.90
23609;DHT22;11982;50.810;4.442;2023-07-31T08:09:49;17.40;99.90
23609;DHT22;11982;50.810;4.442;2023-07-31T08:12:15;17.40;99.90
23609;DHT22;11982;50.810;4.442;2023-07-31T08:14:41;17.40;99.90
23609;DHT22;11982;50.810;4.442;2023-07-31T08:17:07;17.30;99.90
23609;DHT22;11982;50.810;4.442;2023-07-31T08:19:32;17.30;99.90
23609;DHT22;11982;50.810;4.442;2023-07-31T08:21:58;17.30;99.90
23609;DHT22;11982;50.810;4.442;2023-07-31T08:24:24;17.30;99.90
23609;DHT22;11982;50.810;4.442;2023-07-31T08:26:49;17.20;99.90
23609;DHT22;11982;50.810;4.442;2023-07-31T08:29:15;17.20;99.90
23609;DHT22;11982;50.810;4.442;2023-07-31T08:31:41;16.90;99.90
23609;DHT22;11982;50.810;4.442;2023-07-31T08:34:07;16.90;99.90
23609;DHT22;11982;50.810;4.442;2023-07-31T08:36:32;16.80;99.90
23609;DHT22;11982;50.810;4.442;2023-07-31T08:38:58;16.70;99.90
23609;DHT22;11982;50.810;4.442;2023-07-31T08:41:24;16.80;99.90
23609;DHT22;11982;50.810;4.442;2023-07-31T08:43:50;16.80;99.90
23609;DHT22;11982;50.810;4.442;2023-07-31T08:46:16;16.90;99.90
23609;DHT22;11982;50.810;4.442;2023-07-31T08:48:42;16.90;99.90
23609;DHT22;11982;50.810;4.442;2023-07-31T08:51:09;17.00;99.90
23609;DHT22;11982;50.810;4.442;2023-07-31T08:53:35;17.00;99.90
23609;DHT22;11982;50.810;4.442;2023-07-31T08:56:01;17.00;99.90
23609;DHT22;11982;50.810;4.442;2023-07-31T08:58:31;17.00;99.90
23609;DHT22;11982;50.810;4.442;2023-07-31T09:01:01;17.10;99.90
23609;DHT22;11982;50.810;4.442;2023-07-31T09:03:33;17.00;99.90
23609;DHT22;11982;50.810;4.442;2023-07-31T09:05:59;17.10;99.90
23609;DHT22;11982;50.810;4.442;2023-07-31T09:08:26;17.10;99.90
23609;DHT22;11982;50.810;4.442;2023-07-31T09:11:04;17.10;99.90
23609;DHT22;11982;50.810;4.442;2023-07-31T09:13:34;17.30;99.90
23609;DHT22;11982;50.810;4.442;2023-07-31T09:16:00;17.40;99.90
23609;DHT22;11982;50.810;4.442;2023-07-31T09:18:53;17.40;99.90
23609;DHT22;11982;50.810;4.442;2023-07-31T09:21:20;17.50;99.90
23609;DHT22;11982;50.810;4.442;2023-07-31T09:23:47;17.80;99.90
23609;DHT22;11982;50.810;4.442;2023-07-31T09:26:33;17.90;99.90
23609;DHT22;11982;50.810;4.442;2023-07-31T09:29:00;18.10;99.90
23609;DHT22;11982;50.810;4.442;2023-07-31T09:31:53;18.20;99.90
23609;DHT22;11982;50.810;4.442;2023-07-31T09:34:19;18.10;99.90
23609;DHT22;11982;50.810;4.442;2023-07-31T09:36:47;18.00;99.90
23609;DHT22;11982;50.810;4.442;2023-07-31T09:39:15;17.90;99.90
23609;DHT22;11982;50.810;4.442;2023-07-31T09:41:48;17.80;99.90
23609;DHT22;11982;50.810;4.442;2023-07-31T09:44:19;17.70;99.90
23609;DHT22;11982;50.810;4.442;2023-07-31T09:46:45;17.50;99.90
23609;DHT22;11982;50.810;4.442;2023-07-31T09:49:12;17.40;99.90
23609;DHT22;11982;50.810;4.442;2023-07-31T09:51:39;17.40;99.90
23609;DHT22;11982;50.810;4.442;2023-07-31T09:54:11;17.30;99.90
23609;DHT22;11982;50.810;4.442;2023-07-31T09:56:43;17.40;99.90
23609;DHT22;11982;50.810;4.442;2023-07-31T09:59:12;17.50;99.90
23609;DHT22;11982;50.810;4.442;2023-07-31T10:01:40;17.50;99.90
23609;DHT22;11982;50.810;4.442;2023-07-31T10:04:08;17.60;99.90
23609;DHT22;11982;50.810;4.442;2023-07-31T10:06:35;17.60;99.90
23609;DHT22;11982;50.810;4.442;2023-07-31T10:09:03;17.60;99.90
23609;DHT22;11982;50.810;4.442;2023-07-31T10:11:36;17.60;99.90
23609;DHT22;11982;50.810;4.442;2023-07-31T10:14:04;17.60;99.90
23609;DHT22;11982;50.810;4.442;2023-07-31T10:16:31;17.70;99.90
23609;DHT22;11982;50.810;4.442;2023-07-31T10:18:58;17.70;99.90
23609;DHT22;11982;50.810;4.442;2023-07-31T10:21:24;17.70;99.90
23609;DHT22;11982;50.810;4.442;2023-07-31T10:23:50;17.80;99.90
23609;DHT22;11982;50.810;4.442;2023-07-31T10:26:19;17.90;99.90
23609;DHT22;11982;50.810;4.442;2023-07-31T10:28:46;18.10;99.90
23609;DHT22;11982;50.810;4.442;2023-07-31T10:31:13;18.30;99.90
23609;DHT22;11982;50.810;4.442;2023-07-31T10:33:40;18.50;99.90
23609;DHT22;11982;50.810;4.442;2023-07-31T10:36:17;18.60;99.90
23609;DHT22;11982;50.810;4.442;2023-07-31T10:38:43;18.60;99.90
23609;DHT22;11982;50.810;4.442;2023-07-31T10:41:09;18.60;99.90
23609;DHT22;11982;50.810;4.442;2023-07-31T10:43:39;18.50;99.90
23609;DHT22;11982;50.810;4.442;2023-07-31T10:46:09;18.20;99.90
23609;DHT22;11982;50.810;4.442;2023-07-31T10:48:35;18.20;99.90
23609;DHT22;11982;50.810;4.442;2023-07-31T10:51:10;18.30;99.90
23609;DHT22;11982;50.810;4.442;2023-07-31T10:53:38;18.40;99.90
23609;DHT22;11982;50.810;4.442;2023-07-31T10:56:05;18.70;99.90
23609;DHT22;11982;50.810;4.442;2023-07-31T10:58:32;18.90;99.90
23609;DHT22;11982;50.810;4.442;2023-07-31T11:00:59;18.90;99.90
23609;DHT22;11982;50.810;4.442;2023-07-31T11:03:40;18.80;99.90
23609;DHT22;11982;50.810;4.442;2023-07-31T11:09:30;18.60;99.90
23609;DHT22;11982;50.810;4.442;2023-07-31T11:11:58;18.70;99.90
23609;DHT22;11982;50.810;4.442;2023-07-31T11:20:49;19.20;99.90
23609;DHT22;11982;50.810;4.442;2023-07-31T11:23:18;19.40;99.90
23609;DHT22;11982;50.810;4.442;2023-07-31T11:25:44;19.40;99.90
23609;DHT22;11982;50.810;4.442;2023-07-31T11:28:15;19.40;99.90
23609;DHT22;11982;50.810;4.442;2023-07-31T11:30:42;19.30;99.90
23609;DHT22;11982;50.810;4.442;2023-07-31T11:33:09;19.20;99.90
23609;DHT22;11982;50.810;4.442;2023-07-31T11:35:44;19.40;99.90
23609;DHT22;11982;50.810;4.442;2023-07-31T11:38:11;19.30;99.90
23609;DHT22;11982;50.810;4.442;2023-07-31T11:40:41;19.40;99.90
23609;DHT22;11982;50.810;4.442;2023-07-31T11:43:07;19.50;99.90
23609;DHT22;11982;50.810;4.442;2023-07-31T11:45:33;19.50;99.90
23609;DHT22;11982;50.810;4.442;2023-07-31T11:48:00;19.40;99.90
23609;DHT22;11982;50.810;4.442;2023-07-31T11:50:26;19.30;99.90
23609;DHT22;11982;50.810;4.442;2023-07-31T11:52:57;19.20;99.90
23609;DHT22;11982;50.810;4.442;2023-07-31T11:55:25;19.20;99.90
23609;DHT22;11982;50.810;4.442;2023-07-31T11:57:52;19.40;99.90
23609;DHT22;11982;50.810;4.442;2023-07-31T12:00:19;19.50;99.90
23609;DHT22;11982;50.810;4.442;2023-07-31T12:02:46;19.60;99.90
23609;DHT22;11982;50.810;4.442;2023-07-31T12:05:13;19.70;99.90
23609;DHT22;11982;50.810;4.442;2023-07-31T12:07:46;19.90;99.90
23609;DHT22;11982;50.810;4.442;2023-07-31T12:10:26;20.30;99.90
23609;DHT22;11982;50.810;4.442;2023-07-31T12:13:03;20.60;99.90
23609;DHT22;11982;50.810;4.442;2023-07-31T12:15:40;20.50;99.90
23609;DHT22;11982;50.810;4.442;2023-07-31T12:18:07;20.40;99.90
23609;DHT22;11982;50.810;4.442;2023-07-31T12:20:34;20.60;99.90
23609;DHT22;11982;50.810;4.442;2023-07-31T12:23:00;20.50;99.90
23609;DHT22;11982;50.810;4.442;2023-07-31T12:25:30;20.30;99.90
23609;DHT22;11982;50.810;4.442;2023-07-31T12:28:06;19.90;99.90
23609;DHT22;11982;50.810;4.442;2023-07-31T12:30:38;19.90;99.90
23609;DHT22;11982;50.810;4.442;2023-07-31T12:33:06;19.80;99.90
23609;DHT22;11982;50.810;4.442;2023-07-31T12:35:36;19.90;99.90
23609;DHT22;11982;50.810;4.442;2023-07-31T12:38:02;20.00;99.90
23609;DHT22;11982;50.810;4.442;2023-07-31T12:40:28;19.90;99.90
23609;DHT22;11982;50.810;4.442;2023-07-31T12:42:54;19.80;99.90
23609;DHT22;11982;50.810;4.442;2023-07-31T12:45:19;19.80;99.90
23609;DHT22;11982;50.810;4.442;2023-07-31T12:47:46;19.80;99.90
23609;DHT22;11982;50.810;4.442;2023-07-31T12:50:12;19.90;99.90
23609;DHT22;11982;50.810;4.442;2023-07-31T12:52:38;20.10;99.90
23609;DHT22;11982;50.810;4.442;2023-07-31T12:55:04;20.50;99.90
23609;DHT22;11982;50.810;4.442;2023-07-31T12:57:30;21.00;99.90
23609;DHT22;11982;50.810;4.442;2023-07-31T12:59:56;20.90;99.90
23609;DHT22;11982;50.810;4.442;2023-07-31T13:02:21;20.80;99.90
23609;DHT22;11982;50.810;4.442;2023-07-31T13:04:49;20.30;99.90
23609;DHT22;11982;50.810;4.442;2023-07-31T13:07:15;20.00;99.90
23609;DHT22;11982;50.810;4.442;2023-07-31T13:09:41;19.70;99.90
23609;DHT22;11982;50.810;4.442;2023-07-31T13:12:08;19.50;99.90
23609;DHT22;11982;50.810;4.442;2023-07-31T13:14:43;19.20;99.90
23609;DHT22;11982;50.810;4.442;2023-07-31T13:17:24;19.10;99.90
23609;DHT22;11982;50.810;4.442;2023-07-31T13:19:53;18.90;99.90
23609;DHT22;11982;50.810;4.442;2023-07-31T13:22:27;18.70;99.90
23609;DHT22;11982;50.810;4.442;2023-07-31T13:24:56;18.50;99.90
23609;DHT22;11982;50.810;4.442;2023-07-31T13:27:23;18.40;99.90
23609;DHT22;11982;50.810;4.442;2023-07-31T13:29:53;18.30;99.90
23609;DHT22;11982;50.810;4.442;2023-07-31T13:32:22;18.20;99.90
23609;DHT22;11982;50.810;4.442;2023-07-31T13:34:48;18.00;99.90
23609;DHT22;11982;50.810;4.442;2023-07-31T13:37:14;18.00;99.90
23609;DHT22;11982;50.810;4.442;2023-07-31T13:39:40;18.00;99.90
23609;DHT22;11982;50.810;4.442;2023-07-31T13:42:08;17.90;99.90
23609;DHT22;11982;50.810;4.442;2023-07-31T13:44:40;17.80;99.90
23609;DHT22;11982;50.810;4.442;2023-07-31T13:47:07;17.80;99.90
23609;DHT22;11982;50.810;4.442;2023-07-31T13:49:34;17.70;99.90
23609;DHT22;11982;50.810;4.442;2023-07-31T13:52:00;17.80;99.90
23609;DHT22;11982;50.810;4.442;2023-07-31T13:54:26;17.70;99.90
23609;DHT22;11982;50.810;4.442;2023-07-31T13:56:52;17.80;99.90
23609;DHT22;11982;50.810;4.442;2023-07-31T13:59:18;17.80;99.90
23609;DHT22;11982;50.810;4.442;2023-07-31T14:01:44;17.70;99.90
23609;DHT22;11982;50.810;4.442;2023-07-31T14:04:11;17.70;99.90
23609;DHT22;11982;50.810;4.442;2023-07-31T14:06:36;17.70;99.90
23609;DHT22;11982;50.810;4.442;2023-07-31T14:09:02;17.70;99.90
23609;DHT22;11982;50.810;4.442;2023-07-31T14:11:30;17.80;99.90
23609;DHT22;11982;50.810;4.442;2023-07-31T14:13:57;17.80;99.90
23609;DHT22;11982;50.810;4.442;2023-07-31T14:16:23;17.70;99.90
23609;DHT22;11982;50.810;4.442;2023-07-31T14:18:49;17.70;99.90
23609;DHT22;11982;50.810;4.442;2023-07-31T14:21:15;17.80;99.90
23609;DHT22;11982;50.810;4.442;2023-07-31T14:23:41;17.70;99.90
23609;DHT22;11982;50.810;4.442;2023-07-31T14:26:07;17.80;99.90
23609;DHT22;11982;50.810;4.442;2023-07-31T14:28:33;17.80;99.90
23609;DHT22;11982;50.810;4.442;2023-07-31T14:30:59;17.80;99.90
23609;DHT22;11982;50.810;4.442;2023-07-31T14:33:24;17.90;99.90
23609;DHT22;11982;50.810;4.442;2023-07-31T14:35:50;17.90;99.90
23609;DHT22;11982;50.810;4.442;2023-07-31T14:38:16;17.90;99.90
23609;DHT22;11982;50.810;4.442;2023-07-31T14:40:41;17.80;99.90
23609;DHT22;11982;50.810;4.442;2023-07-31T14:43:07;17.80;99.90
23609;DHT22;11982;50.810;4.442;2023-07-31T14:45:33;17.80;99.90
23609;DHT22;11982;50.810;4.442;2023-07-31T14:47:59;17.80;99.90
23609;DHT22;11982;50.810;4.442;2023-07-31T14:50:25;17.80;99.90
23609;DHT22;11982;50.810;4.442;2023-07-31T14:52:51;17.80;99.90
23609;DHT22;11982;50.810;4.442;2023-07-31T14:55:18;17.90;99.90
23609;DHT22;11982;50.810;4.442;2023-07-31T14:57:44;17.90;99.90
23609;DHT22;11982;50.810;4.442;2023-07-31T15:00:10;17.80;99.90
23609;DHT22;11982;50.810;4.442;2023-07-31T15:02:38;17.70;99.90
23609;DHT22;11982;50.810;4.442;2023-07-31T15:05:04;17.80;99.90
23609;DHT22;11982;50.810;4.442;2023-07-31T15:07:31;17.80;99.90
23609;DHT22;11982;50.810;4.442;2023-07-31T15:09:57;17.80;99.90
23609;DHT22;11982;50.810;4.442;2023-07-31T15:12:23;17.80;99.90
23609;DHT22;11982;50.810;4.442;2023-07-31T15:14:49;17.70;99.90
23609;DHT22;11982;50.810;4.442;2023-07-31T15:17:15;17.80;99.90
23609;DHT22;11982;50.810;4.442;2023-07-31T15:19:41;17.70;99.90
23609;DHT22;11982;50.810;4.442;2023-07-31T15:22:07;17.70;99.90
23609;DHT22;11982;50.810;4.442;2023-07-31T15:24:33;17.60;99.90
23609;DHT22;11982;50.810;4.442;2023-07-31T15:26:59;17.60;99.90
23609;DHT22;11982;50.810;4.442;2023-07-31T15:29:27;17.60;99.90
23609;DHT22;11982;50.810;4.442;2023-07-31T15:31:52;17.70;99.90
23609;DHT22;11982;50.810;4.442;2023-07-31T15:34:18;17.60;99.90
23609;DHT22;11982;50.810;4.442;2023-07-31T15:36:44;17.60;99.90
23609;DHT22;11982;50.810;4.442;2023-07-31T15:39:10;17.60;99.90
23609;DHT22;11982;50.810;4.442;2023-07-31T15:41:40;17.50;99.90
23609;DHT22;11982;50.810;4.442;2023-07-31T15:44:06;17.50;99.90